createdAt,value
2018-06-11T00:06:42.120Z,18
2018-06-11T00:16:41.344Z,18
2018-06-11T00:26:40.581Z,18.1
2018-06-11T00:36:39.808Z,18.1
2018-06-11T00:46:39.039Z,18.1
2018-06-11T00:56:38.269Z,18.1
2018-06-11T01:06:37.504Z,18.1
2018-06-11T01:16:36.792Z,18.1
2018-06-11T01:26:35.976Z,18.2
2018-06-11T01:36:35.201Z,18.2
2018-06-11T01:46:34.545Z,18.3
2018-06-11T01:56:33.665Z,18.3
2018-06-11T02:06:32.895Z,18.3
2018-06-11T02:16:32.136Z,18.3
2018-06-11T02:26:31.366Z,18.3
2018-06-11T02:36:30.588Z,18.4
2018-06-11T02:46:29.821Z,17.9
2018-06-11T02:56:29.050Z,17.8
2018-06-11T03:06:28.284Z,17.8
2018-06-11T03:16:27.525Z,17.9
2018-06-11T03:26:26.745Z,17.9
2018-06-11T03:36:25.978Z,17.9
2018-06-11T03:46:25.202Z,17.9
2018-06-11T03:56:24.485Z,17.9
2018-06-11T04:06:23.666Z,17.9
2018-06-11T04:16:22.902Z,17.9
2018-06-11T04:26:22.132Z,18.1
2018-06-11T04:36:21.361Z,18.2
2018-06-11T04:46:20.583Z,18.3
2018-06-11T04:56:19.822Z,18.4
2018-06-11T05:06:19.055Z,18.6
2018-06-11T05:16:18.283Z,18.6
2018-06-11T05:26:17.506Z,18.9
2018-06-11T05:36:16.786Z,19.1
2018-06-11T05:46:16.236Z,19.3
2018-06-11T05:56:15.252Z,19.5
2018-06-11T06:06:14.437Z,19.8
2018-06-11T06:16:13.664Z,20.1
2018-06-11T06:26:12.899Z,20.4
2018-06-11T06:36:12.130Z,20.8
2018-06-11T06:46:11.352Z,21.2
2018-06-11T06:56:10.594Z,21.6
2018-06-11T07:06:09.819Z,22.1
2018-06-11T07:16:09.046Z,22.6
2018-06-11T07:26:08.283Z,23.2
2018-06-11T07:36:07.513Z,23.8
2018-06-11T07:46:06.743Z,24.4
2018-06-11T07:56:06.022Z,25.1
2018-06-11T08:06:05.205Z,25.8
2018-06-11T08:16:04.437Z,26.5
2018-06-11T08:26:03.675Z,27.2
2018-06-11T08:36:02.910Z,27.9
2018-06-11T08:46:02.145Z,28.7
2018-06-11T08:56:01.371Z,29.4
2018-06-11T09:06:00.601Z,30.3
2018-06-11T09:15:59.828Z,31
2018-06-11T09:25:59.070Z,31.8
2018-06-11T09:35:58.294Z,32.6
2018-06-11T09:45:57.520Z,33.3
2018-06-11T09:55:56.801Z,33.9
2018-06-11T10:05:55.985Z,34.8
2018-06-11T10:15:55.219Z,35.4
2018-06-11T10:25:54.454Z,36
2018-06-11T10:35:53.733Z,36.6
2018-06-11T10:45:52.913Z,37.3
2018-06-11T10:55:52.155Z,37.9
2018-06-11T11:05:51.379Z,38.7
2018-06-11T11:15:50.627Z,39.4
2018-06-11T11:25:49.848Z,40.2
2018-06-11T11:35:49.081Z,41
2018-06-11T11:45:48.314Z,41.7
2018-06-11T11:55:47.540Z,42.4
2018-06-11T12:05:46.772Z,43.2
2018-06-11T12:15:46.010Z,43.9
2018-06-11T12:25:45.235Z,44.7
2018-06-11T12:35:44.465Z,45.4
2018-06-11T12:45:43.700Z,46.1
2018-06-11T12:55:42.930Z,46.8
2018-06-11T13:05:42.159Z,47.6
2018-06-11T13:15:41.396Z,48.3
2018-06-11T13:25:40.625Z,48.9
2018-06-11T13:35:39.857Z,49.6
2018-06-11T13:45:39.092Z,50.2
2018-06-11T13:55:38.365Z,50.8
2018-06-11T14:05:37.595Z,51.3
2018-06-11T14:15:36.788Z,51.8
2018-06-11T14:25:36.018Z,52.1
2018-06-11T14:35:35.238Z,52.3
2018-06-11T14:45:34.469Z,52.6
2018-06-11T14:55:33.715Z,52.8
2018-06-11T15:05:32.935Z,53.1
2018-06-11T15:15:32.215Z,53.3
2018-06-11T15:25:31.403Z,53.4
2018-06-11T15:35:30.634Z,53.5
2018-06-11T15:45:29.857Z,53.6
2018-06-11T15:55:29.087Z,53.4
2018-06-11T16:05:28.325Z,53.4
2018-06-11T16:15:27.576Z,53.5
2018-06-11T16:25:26.790Z,53.4
2018-06-11T16:35:26.018Z,53.1
2018-06-11T16:45:25.255Z,52.8
2018-06-11T16:55:24.544Z,52.8
2018-06-11T17:05:23.722Z,52.3
2018-06-11T17:15:22.955Z,51.9
2018-06-11T17:25:22.241Z,49.8
2018-06-11T17:35:21.422Z,49.8
2018-06-11T17:45:20.664Z,49.5
2018-06-11T17:55:19.942Z,49.4
2018-06-11T18:05:19.171Z,49.3
2018-06-11T18:15:18.359Z,49.1
2018-06-11T18:25:17.589Z,48.9
2018-06-11T18:35:16.828Z,47.4
2018-06-11T18:45:16.060Z,43.5
2018-06-11T18:55:15.292Z,42.5
2018-06-11T19:05:14.529Z,36.2
2018-06-11T19:15:13.766Z,32.8
2018-06-11T19:25:12.992Z,33
2018-06-11T19:35:12.253Z,32.6
2018-06-11T19:45:11.461Z,33.1
2018-06-11T19:55:10.701Z,33.4
2018-06-11T20:05:09.943Z,33.6
2018-06-11T20:15:09.171Z,33.8
2018-06-11T20:25:08.403Z,33.9
2018-06-11T20:35:07.633Z,34.1
2018-06-11T20:45:06.862Z,34.2
2018-06-11T20:55:06.092Z,34.3
2018-06-11T21:05:05.380Z,34.4
2018-06-11T21:15:04.561Z,34.4
2018-06-11T21:25:03.807Z,34.6
2018-06-11T21:35:03.023Z,34.6
2018-06-11T21:45:02.257Z,34.7
2018-06-11T21:55:01.492Z,34.7
2018-06-11T22:05:00.730Z,34.8
2018-06-11T22:14:59.967Z,34.8
2018-06-11T22:24:59.197Z,34.9
2018-06-11T22:34:58.421Z,34.9
2018-06-11T22:44:57.705Z,35
2018-06-11T22:54:56.885Z,35.1
2018-06-11T23:04:56.121Z,35.1
2018-06-11T23:14:55.357Z,35.1
2018-06-11T23:24:54.586Z,35.2
2018-06-11T23:34:53.814Z,35.2
2018-06-11T23:44:53.101Z,35.3
2018-06-11T23:54:52.282Z,35.3
